createdAt,value
2023-01-25T00:00:56.104Z,21.77
2023-01-25T00:03:24.315Z,22.40
2023-01-25T00:06:00.506Z,22.77
2023-01-25T00:08:30.156Z,24.00
2023-01-25T00:10:58.673Z,21.80
2023-01-25T00:13:27.060Z,21.03
2023-01-25T00:15:55.181Z,22.60
2023-01-25T00:18:23.351Z,22.30
2023-01-25T00:20:51.540Z,25.20
2023-01-25T00:23:19.670Z,22.57
2023-01-25T00:25:49.219Z,22.90
2023-01-25T00:28:17.389Z,21.60
2023-01-25T00:30:45.542Z,22.13
2023-01-25T00:33:40.038Z,24.10
2023-01-25T00:36:34.690Z,22.80
2023-01-25T00:39:02.987Z,21.20
2023-01-25T00:41:33.151Z,24.37
2023-01-25T00:44:01.881Z,24.97
2023-01-25T00:46:30.039Z,25.43
2023-01-25T00:48:58.215Z,27.30
2023-01-25T00:51:26.864Z,24.60
2023-01-25T00:53:55.308Z,24.07
2023-01-25T00:56:23.491Z,22.77
2023-01-25T00:58:52.920Z,23.47
2023-01-25T01:01:21.114Z,24.30
2023-01-25T01:03:49.247Z,23.87
2023-01-25T01:06:17.376Z,26.90
2023-01-25T01:08:45.558Z,23.97
2023-01-25T01:11:14.724Z,28.93
2023-01-25T01:13:42.980Z,25.80
2023-01-25T01:16:14.916Z,26.47
2023-01-25T01:18:45.628Z,26.20
2023-01-25T01:21:14.994Z,23.17
2023-01-25T01:23:43.318Z,23.70
2023-01-25T01:26:14.895Z,27.03
2023-01-25T01:28:43.737Z,23.33
2023-01-25T01:31:16.762Z,27.17
2023-01-25T01:33:44.976Z,23.47
2023-01-25T01:36:16.131Z,23.47
2023-01-25T01:38:45.121Z,26.20
2023-01-25T01:41:14.186Z,23.70
2023-01-25T01:43:42.964Z,24.27
2023-01-25T01:46:16.688Z,28.00
2023-01-25T01:48:48.972Z,25.00
2023-01-25T01:51:22.711Z,24.20
2023-01-25T01:53:54.852Z,26.10
2023-01-25T01:56:29.378Z,26.70
2023-01-25T01:59:00.598Z,25.80
2023-01-25T02:01:38.119Z,24.90
2023-01-25T02:04:10.415Z,23.57
2023-01-25T02:06:47.102Z,25.80
2023-01-25T02:09:19.702Z,23.97
2023-01-25T02:11:54.600Z,31.30
2023-01-25T02:14:24.207Z,25.80
2023-01-25T02:17:06.375Z,23.80
2023-01-25T02:19:50.242Z,25.53
2023-01-25T02:22:36.511Z,24.17
2023-01-25T02:25:12.263Z,25.00
2023-01-25T02:27:49.697Z,25.50
2023-01-25T02:30:25.078Z,23.13
2023-01-25T02:33:01.636Z,24.40
2023-01-25T02:35:42.529Z,24.33
2023-01-25T02:38:19.330Z,23.23
2023-01-25T02:40:56.428Z,23.83
2023-01-25T02:43:33.687Z,23.80
2023-01-25T02:46:06.920Z,24.93
2023-01-25T02:48:36.680Z,25.80
2023-01-25T02:51:10.312Z,24.83
2023-01-25T02:53:41.595Z,24.57
2023-01-25T02:56:13.611Z,25.70
2023-01-25T02:58:44.684Z,25.77
2023-01-25T03:01:16.182Z,24.83
2023-01-25T03:03:45.864Z,27.27
2023-01-25T03:06:19.943Z,25.53
2023-01-25T03:08:50.910Z,30.57
2023-01-25T03:11:20.523Z,25.67
2023-01-25T03:13:51.283Z,25.43
2023-01-25T03:16:22.746Z,25.03
2023-01-25T03:18:55.413Z,24.60
2023-01-25T03:21:29.424Z,48.17
2023-01-25T03:24:00.666Z,25.97
2023-01-25T03:26:31.098Z,24.50
2023-01-25T03:29:01.585Z,25.60
2023-01-25T03:31:31.890Z,25.83
2023-01-25T03:34:00.335Z,24.70
2023-01-25T03:36:30.850Z,25.37
2023-01-25T03:39:00.654Z,24.87
2023-01-25T03:41:53.782Z,24.80
2023-01-25T03:44:21.980Z,24.53
2023-01-25T03:46:52.413Z,25.23
2023-01-25T03:49:26.343Z,26.43
2023-01-25T03:51:58.037Z,23.70
2023-01-25T03:54:29.858Z,24.90
2023-01-25T03:57:01.773Z,26.03
2023-01-25T03:59:33.629Z,26.40
2023-01-25T04:02:03.413Z,25.93
2023-01-25T04:04:34.876Z,24.73
2023-01-25T04:07:04.083Z,26.57
2023-01-25T04:09:34.482Z,26.67
2023-01-25T04:12:04.670Z,24.90
2023-01-25T04:14:44.319Z,25.80
2023-01-25T04:17:19.101Z,25.97
2023-01-25T04:19:47.733Z,24.60
2023-01-25T04:22:18.607Z,26.10
2023-01-25T04:24:47.875Z,28.20
2023-01-25T04:27:19.527Z,27.20
2023-01-25T04:29:49.956Z,28.40
2023-01-25T04:32:24.145Z,28.30
2023-01-25T04:34:52.400Z,25.70
2023-01-25T04:37:23.041Z,26.60
2023-01-25T04:39:57.701Z,27.40
2023-01-25T04:42:29.439Z,27.83
2023-01-25T04:45:11.384Z,27.27
2023-01-25T04:47:40.981Z,26.23
2023-01-25T04:50:30.082Z,27.00
2023-01-25T04:53:04.223Z,27.80
2023-01-25T04:55:33.789Z,26.70
2023-01-25T04:58:13.242Z,26.40
2023-01-25T05:00:42.085Z,27.47
2023-01-25T05:03:17.809Z,26.20
2023-01-25T05:05:48.603Z,27.60
2023-01-25T05:08:16.745Z,26.50
2023-01-25T05:10:53.724Z,27.20
2023-01-25T05:13:29.267Z,26.80
2023-01-25T05:15:59.922Z,29.40
2023-01-25T05:18:35.761Z,28.77
2023-01-25T05:21:34.782Z,29.23
2023-01-25T05:24:04.072Z,25.83
2023-01-25T05:26:47.430Z,26.47
2023-01-25T05:29:18.062Z,25.87
2023-01-25T05:32:00.616Z,27.13
2023-01-25T05:34:29.806Z,28.00
2023-01-25T05:37:05.868Z,26.40
2023-01-25T05:39:36.710Z,25.40
2023-01-25T05:42:05.288Z,26.73
2023-01-25T05:44:39.454Z,26.37
2023-01-25T05:47:10.487Z,26.73
2023-01-25T05:49:40.757Z,27.23
2023-01-25T05:52:11.014Z,28.13
2023-01-25T05:54:45.287Z,28.03
2023-01-25T05:57:15.823Z,26.23
2023-01-25T05:59:55.248Z,28.57
2023-01-25T06:02:27.251Z,26.80
2023-01-25T06:04:58.047Z,27.80
2023-01-25T06:07:28.950Z,26.73
2023-01-25T06:10:06.028Z,27.77
2023-01-25T06:12:37.012Z,27.33
2023-01-25T06:15:11.978Z,26.50
2023-01-25T06:17:56.193Z,26.70
2023-01-25T06:20:26.795Z,26.97
2023-01-25T06:22:57.128Z,27.33
2023-01-25T06:25:25.379Z,28.20
2023-01-25T06:27:58.832Z,27.33
2023-01-25T06:30:30.555Z,27.87
2023-01-25T06:33:02.005Z,29.80
2023-01-25T06:35:32.719Z,29.60
2023-01-25T06:38:01.958Z,28.80
2023-01-25T06:40:36.535Z,29.80
2023-01-25T06:43:09.428Z,33.23
2023-01-25T06:45:44.928Z,30.90
2023-01-25T06:48:16.726Z,33.33
2023-01-25T06:50:48.677Z,30.23
2023-01-25T06:53:19.999Z,28.97
2023-01-25T06:55:50.813Z,28.07
2023-01-25T06:58:21.267Z,30.70
2023-01-25T07:01:01.719Z,31.47
2023-01-25T07:03:32.446Z,32.53
2023-01-25T07:06:01.732Z,35.77
2023-01-25T07:08:31.917Z,36.60
2023-01-25T07:11:03.692Z,33.93
2023-01-25T07:13:36.853Z,32.57
2023-01-25T07:16:08.269Z,36.93
2023-01-25T07:18:46.852Z,40.30
2023-01-25T07:21:18.576Z,42.33
2023-01-25T07:26:30.809Z,39.47
2023-01-25T07:29:10.635Z,36.70
2023-01-25T07:31:46.048Z,36.67
2023-01-25T07:34:18.103Z,34.20
2023-01-25T07:36:47.056Z,33.30
2023-01-25T07:39:33.567Z,33.47
2023-01-25T07:42:02.003Z,31.97
2023-01-25T07:44:30.119Z,30.60
2023-01-25T07:47:02.630Z,30.83
2023-01-25T07:49:33.915Z,29.77
2023-01-25T07:52:04.585Z,27.10
2023-01-25T07:54:34.075Z,28.33
2023-01-25T07:57:03.594Z,28.80
2023-01-25T07:59:32.161Z,28.60
2023-01-25T08:02:03.589Z,32.50
2023-01-25T08:04:34.768Z,28.03
2023-01-25T08:07:08.576Z,31.40
2023-01-25T08:09:42.491Z,43.97
2023-01-25T08:12:19.992Z,31.33
2023-01-25T08:14:51.935Z,28.83
2023-01-25T08:17:22.583Z,31.57
2023-01-25T08:19:53.303Z,30.70
2023-01-25T08:22:22.384Z,31.77
2023-01-25T08:24:54.743Z,30.80
2023-01-25T08:27:27.707Z,32.67
2023-01-25T08:29:58.745Z,31.87
2023-01-25T08:32:39.828Z,29.03
2023-01-25T08:35:12.450Z,32.70
2023-01-25T08:37:48.425Z,32.50
2023-01-25T08:40:17.258Z,32.60
2023-01-25T08:42:57.743Z,32.33
2023-01-25T08:45:44.957Z,32.43
2023-01-25T08:48:16.663Z,33.33
2023-01-25T08:51:04.089Z,31.10
2023-01-25T08:53:41.715Z,31.33
2023-01-25T08:58:57.326Z,32.60
2023-01-25T09:01:26.273Z,31.03
2023-01-25T09:04:06.316Z,30.10
2023-01-25T09:06:38.765Z,27.83
2023-01-25T09:09:08.577Z,28.70
2023-01-25T09:11:38.315Z,28.23
2023-01-25T09:14:08.024Z,28.83
2023-01-25T09:16:38.666Z,28.57
2023-01-25T09:19:10.759Z,37.67
2023-01-25T09:21:41.026Z,28.63
2023-01-25T09:24:09.669Z,27.70
2023-01-25T09:26:55.765Z,27.73
2023-01-25T09:29:27.705Z,26.03
2023-01-25T09:31:58.408Z,27.77
2023-01-25T09:34:33.911Z,25.90
2023-01-25T09:37:03.339Z,25.83
2023-01-25T09:39:34.713Z,22.60
2023-01-25T09:42:49.545Z,23.37
2023-01-25T09:45:44.725Z,29.90
2023-01-25T09:48:24.268Z,24.30
2023-01-25T09:51:10.121Z,23.97
2023-01-25T09:53:40.373Z,22.80
2023-01-25T09:56:14.679Z,22.30
2023-01-25T09:58:51.651Z,23.30
2023-01-25T10:01:38.274Z,23.67
2023-01-25T10:04:16.160Z,22.10
2023-01-25T10:07:00.205Z,24.20
2023-01-25T10:09:37.316Z,22.27
2023-01-25T10:12:14.279Z,22.00
2023-01-25T10:14:42.451Z,22.50
2023-01-25T10:17:17.934Z,21.57
2023-01-25T10:19:56.233Z,21.43
2023-01-25T10:22:29.924Z,21.67
2023-01-25T10:25:16.446Z,21.10
2023-01-25T10:27:52.716Z,20.57
2023-01-25T10:30:30.068Z,20.27
2023-01-25T10:33:00.858Z,22.03
2023-01-25T10:35:35.977Z,22.03
2023-01-25T10:38:12.625Z,21.90
2023-01-25T10:40:47.164Z,21.30
2023-01-25T10:43:19.137Z,24.17
2023-01-25T10:45:48.217Z,22.20
2023-01-25T10:48:20.849Z,22.20
2023-01-25T10:50:53.600Z,23.07
2023-01-25T10:53:33.023Z,23.20
2023-01-25T10:56:25.834Z,22.13
2023-01-25T10:59:18.262Z,22.77
2023-01-25T11:01:49.146Z,21.80
2023-01-25T11:04:28.046Z,25.27
2023-01-25T11:06:58.239Z,25.73
2023-01-25T11:09:44.759Z,25.87
2023-01-25T11:12:20.961Z,24.13
2023-01-25T11:14:53.182Z,26.97
2023-01-25T11:17:27.949Z,24.37
2023-01-25T11:20:18.448Z,24.50
2023-01-25T11:22:58.204Z,24.93
2023-01-25T11:25:30.407Z,25.67
2023-01-25T11:28:23.888Z,51.87
2023-01-25T11:30:54.072Z,25.90
2023-01-25T11:33:23.996Z,25.97
2023-01-25T11:36:07.470Z,26.07
2023-01-25T11:38:35.788Z,25.17
2023-01-25T11:41:12.718Z,24.30
2023-01-25T11:44:01.547Z,24.77
2023-01-25T11:46:40.646Z,24.80
2023-01-25T11:49:20.239Z,24.47
2023-01-25T11:51:55.507Z,24.40
2023-01-25T11:54:46.652Z,22.60
2023-01-25T11:57:42.154Z,22.00
2023-01-25T12:00:30.480Z,21.83
2023-01-25T12:03:30.577Z,21.50
2023-01-25T12:06:07.016Z,21.70
2023-01-25T12:08:52.721Z,22.27
2023-01-25T12:11:33.010Z,21.30
2023-01-25T12:14:12.302Z,22.50
2023-01-25T12:16:55.517Z,23.10
2023-01-25T12:19:55.869Z,22.73
2023-01-25T12:22:47.157Z,22.90
2023-01-25T12:25:26.207Z,25.57
2023-01-25T12:28:07.710Z,29.20
2023-01-25T12:30:46.985Z,22.83
2023-01-25T12:33:19.241Z,24.33
2023-01-25T12:35:53.210Z,19.10
2023-01-25T12:38:27.084Z,20.53
2023-01-25T12:41:00.529Z,18.87
2023-01-25T12:43:35.008Z,20.83
2023-01-25T12:46:14.581Z,22.63
2023-01-25T12:48:48.450Z,21.93
2023-01-25T12:51:18.574Z,22.90
2023-01-25T12:53:48.255Z,22.63
2023-01-25T12:56:30.165Z,21.40
2023-01-25T12:59:04.609Z,20.30
2023-01-25T13:01:42.683Z,20.50
2023-01-25T13:04:27.185Z,22.17
2023-01-25T13:07:01.320Z,19.27
2023-01-25T13:09:36.925Z,19.93
2023-01-25T13:12:06.291Z,20.47
2023-01-25T13:14:38.308Z,20.00
2023-01-25T13:17:23.168Z,21.80
2023-01-25T13:19:53.475Z,21.20
2023-01-25T13:23:01.226Z,18.57
2023-01-25T13:25:29.404Z,18.27
2023-01-25T13:28:33.982Z,21.27
2023-01-25T13:31:02.269Z,22.33
2023-01-25T13:33:36.772Z,30.57
2023-01-25T13:36:38.837Z,21.30
2023-01-25T13:39:40.440Z,19.93
2023-01-25T13:42:22.228Z,19.47
2023-01-25T13:44:52.375Z,21.07
2023-01-25T13:47:23.349Z,22.23
2023-01-25T13:49:58.402Z,20.23
2023-01-25T13:52:27.989Z,21.03
2023-01-25T13:54:58.330Z,19.20
2023-01-25T13:57:28.244Z,22.27
2023-01-25T14:00:11.674Z,20.00
2023-01-25T14:02:41.722Z,20.57
2023-01-25T14:05:20.983Z,20.20
2023-01-25T14:07:51.791Z,23.87
2023-01-25T14:10:24.172Z,21.13
2023-01-25T14:12:54.651Z,19.70
2023-01-25T14:15:25.656Z,22.00
2023-01-25T14:18:13.666Z,20.00
2023-01-25T14:20:44.087Z,20.07
2023-01-25T14:23:22.545Z,19.67
2023-01-25T14:25:51.622Z,19.60
2023-01-25T14:28:20.115Z,20.47
2023-01-25T14:30:53.128Z,26.00
2023-01-25T14:33:25.606Z,19.67
2023-01-25T14:36:01.705Z,19.60
2023-01-25T14:38:34.865Z,19.80
2023-01-25T14:41:12.294Z,19.60
2023-01-25T14:43:43.149Z,19.17
2023-01-25T14:46:22.195Z,20.67
2023-01-25T14:48:51.913Z,20.40
2023-01-25T14:51:27.825Z,20.70
2023-01-25T14:54:01.731Z,19.70
2023-01-25T14:56:38.125Z,21.30
2023-01-25T14:59:07.631Z,22.73
2023-01-25T15:01:39.877Z,23.40
2023-01-25T15:04:13.636Z,21.00
2023-01-25T15:06:51.196Z,21.17
2023-01-25T15:09:37.370Z,21.60
2023-01-25T15:12:07.714Z,20.83
2023-01-25T15:14:49.280Z,22.40
2023-01-25T15:17:43.213Z,33.17
2023-01-25T15:20:37.980Z,22.27
2023-01-25T15:23:23.694Z,23.10
2023-01-25T15:25:53.337Z,20.37
2023-01-25T15:28:21.987Z,21.23
2023-01-25T15:30:50.303Z,20.40
2023-01-25T15:33:23.707Z,19.27
2023-01-25T15:35:52.947Z,21.70
2023-01-25T15:38:24.537Z,21.17
2023-01-25T15:40:53.252Z,21.90
2023-01-25T15:43:21.647Z,22.10
2023-01-25T15:45:51.919Z,22.33
2023-01-25T15:48:27.501Z,23.50
2023-01-25T15:50:56.596Z,21.77
2023-01-25T15:53:26.433Z,25.63
2023-01-25T15:55:59.341Z,21.77
2023-01-25T15:58:32.024Z,21.60
2023-01-25T16:01:01.129Z,21.40
2023-01-25T16:03:29.984Z,20.43
2023-01-25T16:06:00.310Z,21.70
2023-01-25T16:08:30.587Z,20.77
2023-01-25T16:10:58.937Z,20.50
2023-01-25T16:13:27.075Z,23.00
2023-01-25T16:15:57.747Z,22.20
2023-01-25T16:18:25.930Z,22.20
2023-01-25T16:20:54.104Z,22.77
2023-01-25T16:23:22.375Z,21.77
2023-01-25T16:25:51.884Z,23.03
2023-01-25T16:28:20.117Z,24.40
2023-01-25T16:30:48.391Z,22.73
2023-01-25T16:33:16.543Z,22.20
2023-01-25T16:35:47.233Z,23.77
2023-01-25T16:38:17.232Z,22.30
2023-01-25T16:40:48.054Z,24.50
2023-01-25T16:43:42.635Z,27.10
2023-01-25T16:46:21.479Z,22.50
2023-01-25T16:48:52.192Z,25.87
2023-01-25T16:51:22.787Z,25.10
2023-01-25T16:53:52.132Z,23.50
2023-01-25T16:56:21.705Z,24.20
2023-01-25T16:58:53.226Z,25.83
2023-01-25T17:01:23.298Z,24.80
2023-01-25T17:03:52.388Z,28.20
2023-01-25T17:06:22.845Z,30.53
2023-01-25T17:08:51.836Z,27.37
2023-01-25T17:11:21.544Z,26.97
2023-01-25T17:13:52.146Z,26.80
2023-01-25T17:16:20.984Z,26.43
2023-01-25T17:18:49.930Z,27.70
2023-01-25T17:21:21.139Z,26.93
2023-01-25T17:23:49.563Z,28.47
2023-01-25T17:26:19.495Z,27.40
2023-01-25T17:28:48.303Z,28.10
2023-01-25T17:31:20.233Z,27.83
2023-01-25T17:33:49.045Z,27.03
2023-01-25T17:36:17.650Z,28.60
2023-01-25T17:38:45.975Z,67.73
2023-01-25T17:41:15.548Z,30.27
2023-01-25T17:43:43.788Z,29.50
2023-01-25T17:46:13.667Z,30.67
2023-01-25T17:48:43.382Z,29.73
2023-01-25T17:51:11.550Z,33.53
2023-01-25T17:53:39.739Z,32.73
2023-01-25T17:56:08.917Z,31.10
2023-01-25T17:58:38.376Z,33.80
2023-01-25T18:01:14.176Z,31.97
2023-01-25T18:03:45.256Z,31.97
2023-01-25T18:06:16.792Z,33.73
2023-01-25T18:08:47.943Z,34.20
2023-01-25T18:11:18.431Z,36.17
2023-01-25T18:13:49.209Z,31.87
2023-01-25T18:16:19.006Z,30.30
2023-01-25T18:18:48.649Z,31.20
2023-01-25T18:21:22.181Z,31.30
2023-01-25T18:23:50.419Z,32.70
2023-01-25T18:26:20.602Z,33.03
2023-01-25T18:28:50.705Z,33.60
2023-01-25T18:31:20.264Z,31.90
2023-01-25T18:33:49.929Z,47.00
2023-01-25T18:36:20.309Z,46.23
2023-01-25T18:38:50.744Z,48.60
2023-01-25T18:41:18.946Z,48.13
2023-01-25T18:43:50.138Z,41.10
2023-01-25T18:46:18.674Z,45.83
2023-01-25T18:48:47.308Z,51.10
2023-01-25T18:51:18.573Z,34.20
2023-01-25T18:53:47.717Z,35.70
2023-01-25T18:56:18.406Z,38.37
2023-01-25T18:58:46.731Z,37.97
2023-01-25T19:01:17.200Z,35.93
2023-01-25T19:03:46.497Z,33.37
2023-01-25T19:06:16.981Z,33.97
2023-01-25T19:08:49.723Z,34.90
2023-01-25T19:11:19.934Z,31.40
2023-01-25T19:13:48.513Z,36.03
2023-01-25T19:16:19.688Z,35.50
2023-01-25T19:18:50.130Z,33.53
2023-01-25T19:21:22.052Z,34.07
2023-01-25T19:23:50.962Z,33.60
2023-01-25T19:26:20.682Z,33.70
2023-01-25T19:28:49.728Z,32.37
2023-01-25T19:31:20.251Z,31.13
2023-01-25T19:33:49.444Z,33.50
2023-01-25T19:36:20.904Z,35.77
2023-01-25T19:38:50.345Z,36.63
2023-01-25T19:41:21.236Z,34.80
2023-01-25T19:43:53.302Z,31.90
2023-01-25T19:46:22.930Z,33.53
2023-01-25T19:48:53.298Z,32.53
2023-01-25T19:51:24.407Z,35.80
2023-01-25T19:53:58.587Z,34.23
2023-01-25T19:56:27.223Z,34.03
2023-01-25T19:58:55.852Z,35.57
2023-01-25T20:01:27.111Z,36.10
2023-01-25T20:03:58.938Z,35.63
2023-01-25T20:06:29.000Z,37.13
2023-01-25T20:08:57.466Z,37.23
2023-01-25T20:11:26.951Z,37.37
2023-01-25T20:13:58.268Z,37.57
2023-01-25T20:16:27.537Z,36.87
2023-01-25T20:18:57.838Z,39.23
2023-01-25T20:21:28.559Z,41.73
2023-01-25T20:24:00.246Z,41.60
2023-01-25T20:26:31.162Z,40.20
2023-01-25T20:29:00.916Z,40.60
2023-01-25T20:31:31.417Z,40.17
2023-01-25T20:34:01.408Z,38.80
2023-01-25T20:36:31.649Z,38.47
2023-01-25T20:38:59.822Z,40.93
2023-01-25T20:41:28.314Z,37.10
2023-01-25T20:44:00.215Z,38.07
2023-01-25T20:46:29.521Z,38.83
2023-01-25T20:48:57.841Z,35.67
2023-01-25T20:51:26.133Z,35.97
2023-01-25T20:53:55.725Z,40.00
2023-01-25T20:56:24.616Z,37.47
2023-01-25T20:58:53.585Z,40.47
2023-01-25T21:01:28.367Z,39.27
2023-01-25T21:03:57.892Z,38.20
2023-01-25T21:09:15.194Z,37.10
2023-01-25T21:11:46.289Z,37.30
2023-01-25T21:14:20.896Z,37.17
2023-01-25T21:16:54.366Z,40.50
2023-01-25T21:19:24.916Z,38.33
2023-01-25T21:21:55.471Z,39.80
2023-01-25T21:24:29.872Z,41.40
2023-01-25T21:26:58.054Z,41.37
2023-01-25T21:29:27.858Z,39.73
2023-01-25T21:31:59.343Z,36.87
2023-01-25T21:34:31.062Z,38.23
2023-01-25T21:37:01.366Z,38.53
2023-01-25T21:39:46.624Z,37.87
2023-01-25T21:42:14.720Z,38.90
2023-01-25T21:45:00.305Z,40.53
2023-01-25T21:47:32.323Z,38.90
2023-01-25T21:50:17.909Z,36.50
2023-01-25T21:52:46.045Z,36.70
2023-01-25T21:55:15.705Z,36.30
2023-01-25T21:57:47.213Z,39.60
2023-01-25T22:00:17.237Z,39.17
2023-01-25T22:02:45.454Z,37.93
2023-01-25T22:05:13.584Z,37.83
2023-01-25T22:07:41.696Z,34.23
2023-01-25T22:10:11.081Z,36.90
2023-01-25T22:12:40.863Z,38.10
2023-01-25T22:15:09.819Z,36.47
2023-01-25T22:17:38.000Z,37.40
2023-01-25T22:20:08.318Z,38.97
2023-01-25T22:22:36.678Z,38.40
2023-01-25T22:25:05.115Z,33.93
2023-01-25T22:27:42.054Z,36.50
2023-01-25T22:30:13.325Z,34.30
2023-01-25T22:32:41.660Z,36.23
2023-01-25T22:35:10.467Z,33.47
2023-01-25T22:37:38.817Z,36.10
2023-01-25T22:40:09.540Z,34.97
2023-01-25T22:42:37.837Z,34.43
2023-01-25T22:45:07.291Z,37.47
2023-01-25T22:47:36.794Z,36.40
2023-01-25T22:50:05.443Z,35.07
2023-01-25T22:52:33.625Z,34.30
2023-01-25T22:55:01.766Z,34.73
2023-01-25T22:57:29.923Z,36.77
2023-01-25T22:59:58.108Z,35.53
2023-01-25T23:02:26.321Z,37.50
2023-01-25T23:04:55.985Z,36.63
2023-01-25T23:07:24.214Z,34.80
2023-01-25T23:09:52.574Z,35.87
2023-01-25T23:12:21.153Z,38.20
2023-01-25T23:14:51.434Z,35.63
2023-01-25T23:17:37.473Z,36.20
2023-01-25T23:20:08.730Z,43.33
2023-01-25T23:22:36.973Z,37.17
2023-01-25T23:25:06.216Z,38.50
2023-01-25T23:27:34.379Z,39.30
2023-01-25T23:30:02.579Z,40.10
2023-01-25T23:32:30.673Z,34.00
2023-01-25T23:34:58.837Z,39.93
2023-01-25T23:37:28.400Z,38.93
2023-01-25T23:39:56.709Z,37.30
2023-01-25T23:42:24.923Z,36.10
2023-01-25T23:44:53.092Z,39.63
2023-01-25T23:47:21.234Z,36.50
2023-01-25T23:49:49.349Z,42.13
2023-01-25T23:52:17.485Z,36.03
2023-01-25T23:54:46.984Z,41.07
2023-01-25T23:57:15.165Z,40.40
2023-01-25T23:59:43.334Z,37.43
